Time;durP1;ratioP1;P1;durP2;ratioP2;P2;SDS_P1;SDS_P2;PMS_P1;PMS_P2;Temp;Humidity;BMP_temperature;BMP_pressure;BME280_temperature;BME280_humidity;BME280_pressure;Samples;Min_cycle;Max_cycle;Signal;HPM_P1;HPM_P2
2023/08/24 00:01:27;;;;;;;6.82;2.67;;;17.80;99.90;;;;;;4993004;28;20034;-69
2023/08/24 00:03:53;;;;;;;12.80;3.45;;;17.80;99.90;;;;;;5001696;28;20018;-69
2023/08/24 00:06:19;;;;;;;5.53;3.05;;;17.80;99.90;;;;;;5002586;28;20029;-69
2023/08/24 00:08:44;;;;;;;7.22;2.92;;;17.80;99.90;;;;;;5003725;28;20027;-68
2023/08/24 00:11:14;;;;;;;7.05;3.10;;;17.70;99.90;;;;;;5003183;28;20032;-69
2023/08/24 00:13:41;;;;;;;6.60;2.72;;;17.60;99.90;;;;;;5004286;28;20084;-69
2023/08/24 00:16:07;;;;;;;7.40;3.60;;;17.60;99.90;;;;;;5003016;28;20022;-69
2023/08/24 00:18:33;;;;;;;10.05;3.45;;;17.60;99.90;;;;;;5017468;28;20029;-69
2023/08/24 00:20:58;;;;;;;5.93;2.92;;;17.60;99.90;;;;;;5001494;28;20120;-69
2023/08/24 00:23:25;;;;;;;6.47;2.95;;;17.60;99.90;;;;;;4999320;28;20459;-69
2023/08/24 00:25:50;;;;;;;11.00;3.55;;;17.50;99.90;;;;;;5001324;28;20034;-69
2023/08/24 00:28:16;;;;;;;8.93;3.33;;;17.50;99.90;;;;;;5000724;28;20045;-69
2023/08/24 00:30:41;;;;;;;7.40;3.20;;;17.50;99.90;;;;;;4999790;28;20132;-69
2023/08/24 00:33:07;;;;;;;11.20;3.33;;;17.50;99.90;;;;;;4994065;28;20034;-69
2023/08/24 00:35:32;;;;;;;9.38;3.40;;;17.40;99.90;;;;;;5003071;28;20088;-69
2023/08/24 00:37:58;;;;;;;5.65;3.25;;;17.40;99.90;;;;;;4999932;28;20420;-69
2023/08/24 00:40:24;;;;;;;8.30;3.30;;;17.30;99.90;;;;;;4993864;28;20042;-69
2023/08/24 00:42:50;;;;;;;7.47;4.13;;;17.30;99.90;;;;;;4997820;28;20116;-69
2023/08/24 00:45:16;;;;;;;10.73;3.42;;;17.20;99.90;;;;;;5004348;28;20175;-69
2023/08/24 00:47:46;;;;;;;6.22;2.97;;;17.10;99.90;;;;;;5001523;28;20030;-68
2023/08/24 00:50:12;;;;;;;5.57;2.85;;;17.10;99.90;;;;;;5014312;28;20472;-68
2023/08/24 00:52:40;;;;;;;7.25;2.67;;;17.10;99.90;;;;;;4998456;28;20057;-68
2023/08/24 00:55:06;;;;;;;6.60;3.28;;;17.00;99.90;;;;;;4975933;28;20069;-69
2023/08/24 00:57:32;;;;;;;12.43;3.17;;;17.00;99.90;;;;;;5004831;28;20033;-69
2023/08/24 01:00:01;;;;;;;10.55;3.15;;;17.00;99.90;;;;;;5004073;28;20065;-69
2023/08/24 01:02:27;;;;;;;7.70;3.20;;;17.00;99.90;;;;;;5001465;28;20024;-69
2023/08/24 01:04:53;;;;;;;8.40;3.67;;;16.90;99.90;;;;;;5003958;28;20018;-69
2023/08/24 01:07:19;;;;;;;8.75;3.83;;;17.00;99.90;;;;;;4999056;28;20022;-69
2023/08/24 01:09:46;;;;;;;12.70;3.72;;;17.00;99.90;;;;;;5001963;28;20025;-68
2023/08/24 01:12:30;;;;;;;8.80;3.00;;;16.90;99.90;;;;;;5006160;28;20391;-69
2023/08/24 01:14:56;;;;;;;9.82;4.10;;;16.90;99.90;;;;;;5002470;28;20491;-69
2023/08/24 01:17:27;;;;;;;5.35;2.92;;;16.90;99.90;;;;;;5004229;28;20044;-69
2023/08/24 01:19:53;;;;;;;6.38;3.17;;;17.00;99.90;;;;;;5000547;28;20041;-69
2023/08/24 01:22:36;;;;;;;6.28;3.78;;;16.90;99.90;;;;;;5004525;28;20061;-69
2023/08/24 01:25:20;;;;;;;7.78;2.90;;;17.00;99.90;;;;;;4998368;28;20527;-69
2023/08/24 01:27:47;;;;;;;;;;;17.00;99.90;;;;;;5004438;28;20535;-68
2023/08/24 01:30:13;;;;;;;6.65;2.88;;;17.00;99.90;;;;;;5002210;28;20398;-69
2023/08/24 01:32:40;;;;;;;4.97;3.35;;;17.00;99.90;;;;;;5002163;28;20060;-68
2023/08/24 01:35:08;;;;;;;4.70;3.17;;;16.90;99.90;;;;;;5000082;28;20053;-69
2023/08/24 01:37:35;;;;;;;5.35;3.10;;;16.80;99.90;;;;;;4996965;28;20030;-69
2023/08/24 01:40:12;;;;;;;6.93;3.72;;;16.80;99.90;;;;;;4997145;28;20070;-69
2023/08/24 01:42:59;;;;;;;12.23;3.70;;;16.70;99.90;;;;;;5001890;28;20074;-68
2023/08/24 01:45:29;;;;;;;5.82;3.08;;;16.70;99.90;;;;;;4996886;28;20037;-69
2023/08/24 01:47:56;;;;;;;11.90;3.83;;;16.70;99.90;;;;;;5003264;28;20060;-69
2023/08/24 01:50:23;;;;;;;8.23;3.33;;;16.70;99.90;;;;;;5000830;28;20029;-69
2023/08/24 01:52:49;;;;;;;6.20;3.95;;;16.70;99.90;;;;;;5002725;28;20043;-68
2023/08/24 01:55:18;;;;;;;6.43;3.25;;;16.70;99.90;;;;;;4981773;28;20038;-69
2023/08/24 01:57:44;;;;;;;12.02;3.70;;;16.70;99.90;;;;;;5003623;28;20053;-69
2023/08/24 02:00:10;;;;;;;10.00;3.40;;;16.60;99.90;;;;;;5002271;28;20029;-69
2023/08/24 02:02:36;;;;;;;5.53;3.03;;;16.60;99.90;;;;;;5001060;28;20155;-69
2023/08/24 02:05:02;;;;;;;11.70;3.15;;;16.60;99.90;;;;;;5000518;28;20678;-69
2023/08/24 02:07:28;;;;;;;11.35;4.00;;;16.60;99.90;;;;;;5002292;28;20048;-68
2023/08/24 02:09:54;;;;;;;8.18;3.80;;;16.60;99.90;;;;;;5005214;28;20029;-69
2023/08/24 02:12:19;;;;;;;6.10;3.22;;;16.60;99.90;;;;;;5003515;28;20029;-69
2023/08/24 02:14:46;;;;;;;5.22;3.15;;;16.50;99.90;;;;;;5005107;28;20077;-69
2023/08/24 02:17:12;;;;;;;6.75;3.38;;;16.50;99.90;;;;;;5003972;28;20038;-69
2023/08/24 02:19:38;;;;;;;7.82;3.88;;;16.50;99.90;;;;;;5005468;28;20506;-68
2023/08/24 02:22:03;;;;;;;8.38;3.05;;;16.50;99.90;;;;;;4999338;28;20092;-67
2023/08/24 02:24:29;;;;;;;10.93;4.03;;;16.50;99.90;;;;;;5003109;28;20036;-69
2023/08/24 02:26:54;;;;;;;5.43;3.63;;;16.60;99.90;;;;;;4993217;28;20050;-68
2023/08/24 02:29:20;;;;;;;5.70;3.20;;;16.60;99.90;;;;;;5003495;28;20064;-68
2023/08/24 02:31:46;;;;;;;7.43;3.10;;;16.60;99.90;;;;;;4994892;28;20084;-69
2023/08/24 02:34:11;;;;;;;6.13;3.58;;;16.60;99.90;;;;;;4999760;28;20026;-69
2023/08/24 02:36:37;;;;;;;15.80;3.80;;;16.50;99.90;;;;;;5003107;28;20398;-69
2023/08/24 02:39:02;;;;;;;6.75;3.50;;;16.50;99.90;;;;;;4996818;28;20479;-69
2023/08/24 02:41:29;;;;;;;9.07;3.70;;;16.50;99.90;;;;;;4997024;28;20041;-69
2023/08/24 02:43:54;;;;;;;6.18;3.28;;;16.50;99.90;;;;;;4995229;28;20033;-68
2023/08/24 02:46:21;;;;;;;8.82;3.55;;;16.60;99.90;;;;;;4997144;28;20036;-69
2023/08/24 02:48:46;;;;;;;5.28;2.88;;;16.60;99.90;;;;;;4999484;28;20030;-69
2023/08/24 02:51:13;;;;;;;7.25;3.33;;;16.60;99.90;;;;;;4999523;28;20068;-69
2023/08/24 02:53:38;;;;;;;4.20;2.78;;;16.60;99.90;;;;;;4978532;28;20508;-69
2023/08/24 02:56:04;;;;;;;6.55;3.05;;;16.70;99.90;;;;;;5002023;28;20030;-67
2023/08/24 02:58:30;;;;;;;8.05;3.05;;;16.80;99.90;;;;;;5001590;28;20505;-69
2023/08/24 03:00:56;;;;;;;6.90;3.33;;;16.80;99.90;;;;;;5004488;28;20045;-68
2023/08/24 03:03:22;;;;;;;6.75;3.40;;;16.80;99.90;;;;;;4997535;28;20136;-69
2023/08/24 03:05:59;;;;;;;7.93;3.17;;;16.90;99.90;;;;;;5001884;28;20054;-69
2023/08/24 03:08:25;;;;;;;6.05;3.13;;;16.90;99.90;;;;;;4997490;28;20022;-69
2023/08/24 03:10:51;;;;;;;9.98;4.50;;;16.90;99.90;;;;;;5003128;28;20027;-69
2023/08/24 03:13:17;;;;;;;7.43;3.08;;;16.90;99.90;;;;;;4998609;28;20557;-69
2023/08/24 03:15:42;;;;;;;6.57;3.22;;;17.00;99.90;;;;;;4998946;28;20097;-68
2023/08/24 03:18:13;;;;;;;11.73;2.80;;;17.00;99.90;;;;;;5001938;28;20447;-67
2023/08/24 03:20:39;;;;;;;6.65;2.83;;;17.00;99.90;;;;;;5000112;28;20030;-69
2023/08/24 03:23:06;;;;;;;7.47;3.17;;;17.10;99.90;;;;;;5000088;28;20439;-69
2023/08/24 03:25:36;;;;;;;4.75;2.95;;;17.10;99.90;;;;;;5000136;28;20038;-68
2023/08/24 03:28:02;;;;;;;6.70;2.83;;;17.10;99.90;;;;;;5002032;28;20042;-68
2023/08/24 03:30:28;;;;;;;4.78;2.95;;;17.10;99.90;;;;;;5000008;28;20022;-69
2023/08/24 03:32:53;;;;;;;12.57;3.17;;;17.00;99.90;;;;;;5002029;28;20068;-69
2023/08/24 03:35:19;;;;;;;5.85;3.35;;;17.00;99.90;;;;;;4997556;28;20708;-69
2023/08/24 03:37:45;;;;;;;8.00;3.33;;;17.00;99.90;;;;;;4996019;28;20038;-69
2023/08/24 03:40:12;;;;;;;6.30;3.53;;;17.00;99.90;;;;;;4999363;28;20070;-69
2023/08/24 03:42:37;;;;;;;6.60;3.58;;;16.90;99.90;;;;;;5002514;28;20045;-69
2023/08/24 03:45:03;;;;;;;6.03;3.70;;;16.90;99.90;;;;;;5006960;28;20030;-69
2023/08/24 03:47:29;;;;;;;6.65;3.40;;;16.90;99.90;;;;;;5000071;28;20018;-68
2023/08/24 03:49:54;;;;;;;8.40;3.42;;;17.00;99.90;;;;;;5006737;28;20024;-69
2023/08/24 03:52:20;;;;;;;7.97;3.05;;;17.00;99.90;;;;;;5006023;28;20042;-69
2023/08/24 03:54:46;;;;;;;7.40;2.97;;;17.10;99.90;;;;;;4983159;28;20053;-68
2023/08/24 03:57:11;;;;;;;5.75;3.03;;;17.20;99.90;;;;;;5000619;28;20033;-69
2023/08/24 03:59:37;;;;;;;7.45;2.78;;;17.20;99.90;;;;;;5006125;28;20499;-69
2023/08/24 04:02:03;;;;;;;6.18;3.72;;;17.20;99.90;;;;;;5004434;28;20543;-68
2023/08/24 04:04:32;;;;;;;4.85;2.92;;;17.30;99.90;;;;;;5004435;28;20037;-69
2023/08/24 04:06:58;;;;;;;4.78;3.33;;;17.30;99.90;;;;;;4999777;28;20037;-69
2023/08/24 04:09:23;;;;;;;7.47;2.88;;;17.30;99.90;;;;;;5003989;28;20030;-69
2023/08/24 04:11:49;;;;;;;6.57;2.88;;;17.30;99.90;;;;;;4998819;28;20087;-69
2023/08/24 04:14:14;;;;;;;7.20;3.30;;;17.30;99.90;;;;;;5006909;28;20037;-68
2023/08/24 04:16:41;;;;;;;4.72;3.10;;;17.30;99.90;;;;;;4999140;28;20035;-69
2023/08/24 04:19:07;;;;;;;5.28;3.05;;;17.20;99.90;;;;;;5004558;28;20026;-69
2023/08/24 04:21:33;;;;;;;7.20;3.80;;;17.20;99.90;;;;;;5001269;28;20030;-69
2023/08/24 04:23:59;;;;;;;5.60;3.22;;;17.30;99.90;;;;;;5005280;28;20042;-69
2023/08/24 04:26:24;;;;;;;5.90;3.03;;;17.30;99.90;;;;;;4998821;28;20045;-69
2023/08/24 04:28:50;;;;;;;7.13;3.45;;;17.30;99.90;;;;;;5003346;28;20499;-69
2023/08/24 04:31:15;;;;;;;6.82;3.60;;;17.20;99.90;;;;;;5004260;28;20026;-69
2023/08/24 04:33:41;;;;;;;12.52;3.75;;;17.20;99.90;;;;;;4997357;28;20034;-69
2023/08/24 04:36:07;;;;;;;10.60;3.50;;;17.10;99.90;;;;;;5006272;28;20030;-67
2023/08/24 04:38:32;;;;;;;4.70;2.97;;;17.20;99.90;;;;;;5003085;28;20030;-69
2023/08/24 04:40:58;;;;;;;14.32;3.85;;;17.20;99.90;;;;;;5004812;28;20246;-69
2023/08/24 04:43:24;;;;;;;6.90;3.60;;;17.10;99.90;;;;;;4998309;28;20038;-69
2023/08/24 04:45:54;;;;;;;5.75;3.00;;;17.10;99.90;;;;;;5022754;28;20078;-69
2023/08/24 04:48:21;;;;;;;9.55;3.75;;;17.00;99.90;;;;;;5003663;28;20026;-69
2023/08/24 04:50:49;;;;;;;9.32;3.30;;;17.00;99.90;;;;;;5006223;28;20365;-69
2023/08/24 04:53:16;;;;;;;9.18;3.65;;;17.00;99.90;;;;;;5001601;28;20061;-69
2023/08/24 04:55:42;;;;;;;5.15;3.20;;;17.00;99.90;;;;;;4980385;28;20116;-69
2023/08/24 04:58:11;;;;;;;9.40;4.22;;;17.00;99.90;;;;;;5005569;28;20037;-69
2023/08/24 05:00:37;;;;;;;6.18;3.72;;;17.10;99.90;;;;;;5003446;28;20033;-69
2023/08/24 05:03:04;;;;;;;7.80;3.33;;;17.10;99.90;;;;;;5001560;28;20034;-69
2023/08/24 05:05:31;;;;;;;10.40;3.92;;;17.10;99.90;;;;;;5003945;28;20030;-69
2023/08/24 05:07:57;;;;;;;6.88;2.97;;;17.10;99.90;;;;;;4997117;28;20152;-69
2023/08/24 05:10:23;;;;;;;8.63;4.40;;;17.10;99.90;;;;;;5003651;28;20034;-69
2023/08/24 05:12:49;;;;;;;7.25;3.42;;;17.10;99.90;;;;;;5004021;28;20061;-70
2023/08/24 05:15:14;;;;;;;7.03;2.90;;;17.10;99.90;;;;;;5005687;28;20810;-69
2023/08/24 05:17:40;;;;;;;5.57;3.10;;;17.00;99.90;;;;;;4995271;28;20076;-69
2023/08/24 05:20:10;;;;;;;7.85;3.78;;;17.00;99.90;;;;;;5003047;28;20415;-68
2023/08/24 05:22:36;;;;;;;6.18;3.88;;;17.00;99.90;;;;;;5001325;28;20096;-69
2023/08/24 05:25:03;;;;;;;8.63;4.15;;;17.10;99.90;;;;;;5004048;28;20096;-69
2023/08/24 05:27:28;;;;;;;9.30;5.40;;;17.10;99.90;;;;;;5005907;28;20030;-69
2023/08/24 05:29:54;;;;;;;6.25;3.60;;;17.10;99.90;;;;;;4996373;28;20946;-69
2023/08/24 05:32:19;;;;;;;7.60;4.88;;;17.20;99.90;;;;;;5001891;28;20045;-69
2023/08/24 05:34:45;;;;;;;7.40;4.40;;;17.20;99.90;;;;;;4997040;28;20436;-69
2023/08/24 05:37:11;;;;;;;9.80;4.78;;;17.30;99.90;;;;;;5015910;28;20033;-69
2023/08/24 05:39:37;;;;;;;8.80;4.53;;;17.30;99.90;;;;;;5004338;28;20400;-69
2023/08/24 05:42:02;;;;;;;8.00;4.38;;;17.30;99.90;;;;;;5000228;28;20496;-66
2023/08/24 05:44:28;;;;;;;11.82;4.18;;;17.40;99.90;;;;;;5001637;28;20108;-69
2023/08/24 05:46:54;;;;;;;10.52;4.40;;;17.50;99.90;;;;;;5002442;28;20037;-69
2023/08/24 05:49:19;;;;;;;7.53;3.90;;;17.50;99.90;;;;;;5003637;28;20097;-69
2023/08/24 05:51:45;;;;;;;6.75;3.85;;;17.60;99.90;;;;;;4999386;28;20036;-69
2023/08/24 05:54:11;;;;;;;8.27;3.53;;;17.70;99.90;;;;;;4983833;28;20050;-69
2023/08/24 05:56:36;;;;;;;6.22;3.42;;;17.90;99.90;;;;;;5003504;28;20029;-70
2023/08/24 05:59:02;;;;;;;8.60;3.90;;;18.00;99.90;;;;;;4995866;28;20034;-69
2023/08/24 06:01:28;;;;;;;6.07;3.70;;;18.10;99.90;;;;;;5000649;28;20065;-67
2023/08/24 06:03:53;;;;;;;6.85;3.17;;;18.20;99.90;;;;;;5001092;28;20152;-69
2023/08/24 06:06:19;;;;;;;10.15;4.00;;;18.40;99.90;;;;;;4999905;28;20034;-69
2023/08/24 06:08:44;;;;;;;6.25;3.63;;;18.50;99.90;;;;;;4999958;28;20170;-69
2023/08/24 06:11:10;;;;;;;10.50;4.10;;;18.60;99.90;;;;;;5003007;28;20038;-69
2023/08/24 06:13:36;;;;;;;5.85;3.83;;;18.60;99.90;;;;;;5000048;28;20033;-69
2023/08/24 06:16:01;;;;;;;5.30;3.42;;;18.60;99.90;;;;;;4986621;28;20030;-69
2023/08/24 06:18:27;;;;;;;10.07;4.18;;;18.70;99.90;;;;;;4999506;28;20032;-70
2023/08/24 06:20:54;;;;;;;6.85;3.65;;;18.80;99.90;;;;;;5002657;28;20033;-69
2023/08/24 06:23:19;;;;;;;7.22;3.15;;;18.90;99.90;;;;;;4994976;28;20096;-69
2023/08/24 06:25:45;;;;;;;6.88;3.47;;;19.00;99.90;;;;;;5002499;28;20457;-69
2023/08/24 06:28:11;;;;;;;7.55;3.38;;;19.10;99.90;;;;;;4997610;28;20045;-69
2023/08/24 06:30:38;;;;;;;5.50;3.05;;;19.20;99.90;;;;;;4997518;28;20630;-69
2023/08/24 06:33:05;;;;;;;7.40;3.25;;;19.40;99.90;;;;;;4998161;28;20415;-67
2023/08/24 06:35:31;;;;;;;6.43;3.65;;;20.30;99.90;;;;;;5003497;28;20026;-67
2023/08/24 06:37:57;;;;;;;6.75;2.55;;;21.30;99.90;;;;;;4992100;28;20030;-67
2023/08/24 06:40:22;;;;;;;5.10;2.60;;;22.00;99.90;;;;;;4994010;28;20419;-68
2023/08/24 06:42:48;;;;;;;7.95;2.40;;;22.60;99.90;;;;;;5002038;28;20450;-68
2023/08/24 06:45:14;;;;;;;8.63;2.20;;;23.30;99.90;;;;;;5000652;28;20022;-68
2023/08/24 06:47:39;;;;;;;7.03;2.88;;;25.10;99.90;;;;;;5000459;28;20045;-68
2023/08/24 06:50:06;;;;;;;6.40;2.33;;;26.00;99.90;;;;;;4996958;28;20022;-66
2023/08/24 06:52:32;;;;;;;4.72;2.38;;;26.50;99.90;;;;;;5001487;28;20179;-68
2023/08/24 06:54:58;;;;;;;2.85;1.85;;;26.40;99.90;;;;;;4975856;28;20045;-68
2023/08/24 06:57:24;;;;;;;4.63;2.47;;;26.50;99.10;;;;;;4994914;28;20026;-68
2023/08/24 06:59:50;;;;;;;5.57;1.80;;;27.10;99.40;;;;;;4993134;28;20518;-68
2023/08/24 07:02:17;;;;;;;5.22;2.53;;;28.40;98.20;;;;;;4997063;28;20025;-68
2023/08/24 07:04:43;;;;;;;4.75;2.00;;;28.40;95.70;;;;;;5003952;28;20455;-68
2023/08/24 07:07:09;;;;;;;5.20;1.90;;;28.50;93.70;;;;;;4993020;28;20156;-68
2023/08/24 07:09:35;;;;;;;4.35;2.40;;;28.90;93.60;;;;;;4996037;28;20030;-68
2023/08/24 07:12:06;;;;;;;3.40;1.90;;;28.60;93.00;;;;;;4999259;28;20030;-68
2023/08/24 07:14:33;;;;;;;4.35;2.03;;;28.70;92.70;;;;;;5005872;28;20127;-69
2023/08/24 07:16:59;;;;;;;8.80;2.00;;;29.30;93.20;;;;;;5008780;28;20026;-68
2023/08/24 07:19:24;;;;;;;5.50;2.70;;;28.90;94.50;;;;;;4999342;28;20077;-68
2023/08/24 07:21:50;;;;;;;6.90;2.67;;;29.50;92.50;;;;;;5001488;28;20022;-68
2023/08/24 07:24:18;;;;;;;4.57;1.90;;;29.40;92.30;;;;;;4992020;28;20518;-68
2023/08/24 07:26:45;;;;;;;3.28;2.33;;;30.20;92.00;;;;;;5005755;28;20049;-69
2023/08/24 07:29:11;;;;;;;7.38;2.25;;;30.70;91.00;;;;;;5009231;28;20060;-68
2023/08/24 07:31:36;;;;;;;5.40;1.92;;;31.30;88.10;;;;;;5004629;28;20112;-68
2023/08/24 07:34:03;;;;;;;4.72;1.80;;;31.40;88.00;;;;;;4989938;28;20033;-68
2023/08/24 07:36:29;;;;;;;6.25;2.13;;;31.90;85.30;;;;;;5000434;28;20072;-69
2023/08/24 07:38:54;;;;;;;5.13;1.92;;;31.50;85.30;;;;;;5006882;28;20033;-68
2023/08/24 07:41:20;;;;;;;4.93;2.00;;;31.70;85.30;;;;;;5009585;28;20075;-68
2023/08/24 07:43:46;;;;;;;6.28;1.83;;;31.40;85.50;;;;;;5007786;28;20104;-68
2023/08/24 07:46:11;;;;;;;3.30;1.73;;;31.20;84.30;;;;;;5023408;28;20117;-68
2023/08/24 07:48:37;;;;;;;2.58;2.03;;;32.50;83.80;;;;;;5003556;28;20030;-68
2023/08/24 07:51:02;;;;;;;3.47;1.60;;;32.90;82.20;;;;;;5006495;28;20026;-68
2023/08/24 07:53:28;;;;;;;3.97;1.70;;;33.50;81.30;;;;;;5008116;28;20033;-69
2023/08/24 07:55:57;;;;;;;6.53;1.98;;;32.90;81.40;;;;;;4989296;28;20041;-68
2023/08/24 07:58:23;;;;;;;3.42;1.80;;;33.00;79.10;;;;;;5008071;28;20022;-71
2023/08/24 08:00:52;;;;;;;3.30;2.20;;;32.70;78.90;;;;;;5003558;28;20084;-68
2023/08/24 08:03:18;;;;;;;3.35;2.10;;;32.80;78.50;;;;;;5008173;28;20036;-68
2023/08/24 08:05:46;;;;;;;5.07;1.50;;;32.90;78.60;;;;;;5009184;28;20040;-68
2023/08/24 08:08:15;;;;;;;2.92;1.90;;;32.90;80.80;;;;;;5003830;28;20076;-68
2023/08/24 08:10:41;;;;;;;9.75;2.03;;;33.60;78.00;;;;;;5009924;28;20097;-68
2023/08/24 08:13:08;;;;;;;4.72;1.80;;;33.50;79.30;;;;;;5003524;28;20384;-68
2023/08/24 08:15:33;;;;;;;4.70;1.83;;;33.40;77.70;;;;;;5001592;28;20105;-68
2023/08/24 08:17:59;;;;;;;6.60;1.85;;;33.80;78.20;;;;;;5010539;28;20168;-68
2023/08/24 08:20:25;;;;;;;4.47;1.67;;;33.90;78.20;;;;;;5006079;28;20022;-68
2023/08/24 08:22:50;;;;;;;3.47;1.52;;;34.10;75.50;;;;;;5003876;28;20050;-68
2023/08/24 08:25:21;;;;;;;2.70;1.75;;;33.60;77.90;;;;;;5004644;28;20068;-68
2023/08/24 08:27:48;;;;;;;3.60;1.77;;;34.00;78.20;;;;;;5003897;28;20097;-68
2023/08/24 08:30:15;;;;;;;4.93;1.80;;;33.50;75.30;;;;;;5017730;28;20121;-68
2023/08/24 08:32:40;;;;;;;4.53;1.77;;;33.80;74.50;;;;;;4997293;28;20148;-68
2023/08/24 08:35:08;;;;;;;3.42;1.83;;;34.20;74.40;;;;;;5006314;28;20484;-69
2023/08/24 08:37:33;;;;;;;2.35;1.50;;;34.70;76.40;;;;;;5007338;28;20664;-68
2023/08/24 08:39:59;;;;;;;4.80;1.67;;;35.00;74.80;;;;;;5003023;28;20072;-69
2023/08/24 08:42:24;;;;;;;1.88;1.55;;;34.70;75.30;;;;;;5006181;28;20527;-68
2023/08/24 08:44:53;;;;;;;2.95;1.58;;;34.60;72.80;;;;;;5001422;28;20030;-69
2023/08/24 08:47:20;;;;;;;3.08;1.70;;;35.10;72.80;;;;;;5011564;28;20038;-68
2023/08/24 08:49:48;;;;;;;1.63;1.33;;;34.90;71.40;;;;;;5003994;28;20081;-69
2023/08/24 08:52:14;;;;;;;4.18;2.00;;;34.20;73.10;;;;;;5007491;28;20034;-69
2023/08/24 08:54:40;;;;;;;6.05;2.95;;;34.10;71.80;;;;;;4978904;28;20568;-69
2023/08/24 08:57:06;;;;;;;1.90;1.52;;;34.20;72.30;;;;;;5004067;28;20030;-68
2023/08/24 08:59:33;;;;;;;4.28;1.60;;;34.50;73.90;;;;;;5005608;28;20129;-68
2023/08/24 09:02:01;;;;;;;2.67;1.50;;;34.40;76.20;;;;;;5004424;28;20041;-69
2023/08/24 09:04:32;;;;;;;3.35;1.80;;;33.90;74.80;;;;;;5003010;28;20030;-69
2023/08/24 09:06:58;;;;;;;3.70;1.80;;;33.80;73.20;;;;;;4998925;28;20439;-68
2023/08/24 09:09:25;;;;;;;5.63;1.70;;;33.70;74.50;;;;;;5006151;28;20096;-69
2023/08/24 09:11:51;;;;;;;2.67;1.58;;;34.30;73.70;;;;;;5006744;28;20029;-69
2023/08/24 09:14:17;;;;;;;5.63;1.88;;;34.60;72.90;;;;;;4994968;28;20035;-68
2023/08/24 09:16:43;;;;;;;4.80;1.65;;;35.30;70.50;;;;;;5003228;28;20397;-68
2023/08/24 09:19:11;;;;;;;2.47;1.70;;;34.60;72.80;;;;;;5000805;28;20122;-69
2023/08/24 09:21:38;;;;;;;2.47;1.58;;;35.00;71.60;;;;;;5007396;28;20411;-69
2023/08/24 09:24:04;;;;;;;2.83;1.85;;;35.50;71.80;;;;;;5005213;28;20033;-69
2023/08/24 09:26:35;;;;;;;3.38;1.60;;;35.80;71.50;;;;;;4993527;28;20563;-68
2023/08/24 09:29:14;;;;;;;1.70;1.52;;;35.90;70.70;;;;;;5003552;28;20036;-69
2023/08/24 09:31:40;;;;;;;2.30;1.70;;;36.20;72.10;;;;;;4999903;28;20108;-69
2023/08/24 09:34:06;;;;;;;7.38;1.90;;;36.70;70.00;;;;;;4998300;28;20026;-69
2023/08/24 09:36:35;;;;;;;3.95;2.22;;;36.90;68.60;;;;;;5004139;28;20025;-69
2023/08/24 09:39:06;;;;;;;2.22;1.55;;;36.30;67.40;;;;;;4997497;28;20033;-69
2023/08/24 09:41:44;;;;;;;3.22;1.50;;;36.10;68.50;;;;;;5004950;28;20045;-68
2023/08/24 09:44:11;;;;;;;3.17;2.03;;;36.00;69.40;;;;;;5003078;28;20040;-68
2023/08/24 09:46:38;;;;;;;4.90;1.35;;;35.60;71.20;;;;;;4996405;28;20872;-68
2023/08/24 09:49:05;;;;;;;3.83;1.70;;;35.70;69.50;;;;;;5002278;28;20129;-68
2023/08/24 09:51:33;;;;;;;1.95;1.45;;;35.90;70.30;;;;;;5021098;28;20065;-69
2023/08/24 09:54:01;;;;;;;1.63;1.30;;;35.80;68.90;;;;;;4985609;28;20117;-69
2023/08/24 09:56:28;;;;;;;3.45;1.58;;;35.50;67.00;;;;;;5005679;28;20046;-69
2023/08/24 09:58:58;;;;;;;3.15;1.55;;;35.30;68.60;;;;;;5003808;28;20682;-68
2023/08/24 10:01:24;;;;;;;3.47;2.10;;;35.40;67.00;;;;;;5002355;28;20080;-68
2023/08/24 10:03:56;;;;;;;4.70;2.17;;;35.00;67.80;;;;;;4997660;28;20391;-68
2023/08/24 10:06:23;;;;;;;3.17;1.87;;;34.00;69.40;;;;;;5000126;28;20030;-68
2023/08/24 10:08:55;;;;;;;2.53;1.50;;;33.50;70.00;;;;;;4990387;28;20030;-68
2023/08/24 10:11:28;;;;;;;3.93;1.70;;;32.80;71.70;;;;;;5002476;28;20076;-68
2023/08/24 10:14:03;;;;;;;7.18;1.88;;;32.10;70.30;;;;;;5000360;28;20403;-68
2023/08/24 10:16:30;;;;;;;5.38;1.70;;;32.00;72.30;;;;;;5004441;28;20030;-68
2023/08/24 10:18:55;;;;;;;5.35;1.83;;;31.90;70.20;;;;;;4997051;28;20037;-67
2023/08/24 10:21:24;;;;;;;3.20;2.13;;;31.80;73.90;;;;;;5000321;28;20033;-68
2023/08/24 10:23:52;;;;;;;3.25;1.67;;;31.40;72.60;;;;;;4992963;28;20053;-67
2023/08/24 10:26:19;;;;;;;6.40;1.80;;;31.60;73.00;;;;;;4992530;28;20050;-68
2023/08/24 10:28:46;;;;;;;7.05;2.15;;;31.60;74.00;;;;;;4994108;28;20045;-68
2023/08/24 10:31:12;;;;;;;5.90;1.88;;;31.70;73.10;;;;;;5001250;28;20085;-68
2023/08/24 10:33:38;;;;;;;4.32;1.50;;;31.50;74.30;;;;;;5004523;28;20057;-68
2023/08/24 10:36:07;;;;;;;2.35;1.60;;;31.70;73.30;;;;;;4998701;28;20027;-68
2023/08/24 10:38:39;;;;;;;3.88;1.77;;;31.60;73.50;;;;;;4998993;28;20041;-71
2023/08/24 10:41:05;;;;;;;3.88;1.85;;;31.70;73.10;;;;;;5003719;28;21261;-68
2023/08/24 10:43:36;;;;;;;3.40;1.90;;;31.50;75.20;;;;;;5004244;28;20048;-68
2023/08/24 10:46:03;;;;;;;5.55;2.10;;;31.50;75.80;;;;;;5003947;28;20467;-68
2023/08/24 10:48:49;;;;;;;2.80;1.80;;;31.60;76.90;;;;;;5002464;28;21432;-68
2023/08/24 10:51:21;;;;;;;3.97;1.70;;;31.60;74.80;;;;;;4992301;28;20034;-68
2023/08/24 10:53:53;;;;;;;4.43;1.73;;;31.40;77.50;;;;;;4995737;28;20029;-68
2023/08/24 10:56:20;;;;;;;2.72;1.70;;;31.40;77.90;;;;;;4984412;28;20054;-68
2023/08/24 10:58:46;;;;;;;5.63;1.95;;;31.20;76.60;;;;;;5001094;28;20081;-68
2023/08/24 11:01:21;;;;;;;2.80;1.58;;;31.60;78.00;;;;;;5000228;28;20092;-69
2023/08/24 11:03:51;;;;;;;5.10;2.10;;;31.70;77.80;;;;;;5002860;28;20030;-68
2023/08/24 11:06:22;;;;;;;3.45;1.67;;;31.70;78.20;;;;;;4995285;28;20042;-69
2023/08/24 11:08:49;;;;;;;3.65;1.80;;;31.80;77.70;;;;;;5003257;28;20030;-68
2023/08/24 11:11:27;;;;;;;3.17;1.77;;;32.00;78.80;;;;;;5001151;28;20034;-70
2023/08/24 11:14:29;;;;;;;3.40;1.70;;;32.10;78.60;;;;;;5000807;28;20038;-69
2023/08/24 11:16:58;;;;;;;4.13;1.73;;;32.00;77.50;;;;;;5002640;28;20018;-68
2023/08/24 11:19:23;;;;;;;2.97;1.80;;;32.20;78.50;;;;;;5001980;28;20758;-69
2023/08/24 11:21:50;;;;;;;3.22;1.75;;;32.20;77.40;;;;;;4989611;28;20034;-69
2023/08/24 11:24:20;;;;;;;6.70;1.63;;;32.40;78.20;;;;;;4999073;28;20035;-67
2023/08/24 11:26:49;;;;;;;7.47;2.20;;;32.00;76.80;;;;;;5003203;28;20484;-68
2023/08/24 11:29:15;;;;;;;4.47;1.65;;;32.00;78.60;;;;;;5002652;28;20048;-67
2023/08/24 11:31:41;;;;;;;6.65;1.63;;;31.80;78.30;;;;;;5003032;28;20044;-68
2023/08/24 11:34:07;;;;;;;5.32;2.25;;;31.90;78.20;;;;;;4998640;28;20034;-68
2023/08/24 11:36:49;;;;;;;2.50;1.65;;;32.00;79.30;;;;;;5003151;28;20053;-68
2023/08/24 11:39:20;;;;;;;4.40;1.60;;;31.90;77.50;;;;;;5013502;28;20133;-67
2023/08/24 11:42:01;;;;;;;4.20;1.80;;;31.70;79.30;;;;;;4997558;28;20026;-67
2023/08/24 11:44:27;;;;;;;5.30;1.92;;;31.60;77.90;;;;;;5000226;28;20038;-68
2023/08/24 11:46:52;;;;;;;7.45;2.30;;;31.40;81.30;;;;;;5004512;28;20022;-67
2023/08/24 11:49:18;;;;;;;6.20;2.15;;;30.90;79.40;;;;;;5016307;28;20045;-68
2023/08/24 11:51:44;;;;;;;3.70;1.73;;;30.50;79.50;;;;;;4997679;28;20030;-68
2023/08/24 11:54:10;;;;;;;2.85;1.55;;;30.40;80.30;;;;;;5011648;28;20160;-66
2023/08/24 11:56:42;;;;;;;11.02;1.73;;;30.30;82.40;;;;;;4979193;28;20046;-68
2023/08/24 11:59:12;;;;;;;3.60;1.80;;;30.20;82.90;;;;;;5002979;28;20079;-68
2023/08/24 12:01:40;;;;;;;5.57;1.77;;;30.00;81.30;;;;;;5003159;28;20119;-68
2023/08/24 12:04:06;;;;;;;5.82;1.98;;;29.70;81.30;;;;;;5000429;28;20041;-67
2023/08/24 12:06:32;;;;;;;4.20;1.63;;;29.50;81.50;;;;;;5005389;28;20042;-67
2023/08/24 12:08:58;;;;;;;3.33;1.80;;;29.40;82.50;;;;;;5005416;28;20041;-67
2023/08/24 12:11:25;;;;;;;4.85;2.03;;;29.30;82.30;;;;;;5006115;28;20084;-67
2023/08/24 12:13:52;;;;;;;3.33;2.17;;;29.10;82.40;;;;;;5003738;28;20029;-67
2023/08/24 12:16:19;;;;;;;3.95;1.92;;;29.00;84.80;;;;;;5000261;28;20022;-67
2023/08/24 12:18:56;;;;;;;3.63;2.42;;;29.00;83.00;;;;;;5005877;28;20025;-68
2023/08/24 12:21:23;;;;;;;3.95;1.88;;;29.10;83.30;;;;;;4998479;28;20099;-67
2023/08/24 12:24:04;;;;;;;3.95;1.77;;;29.30;83.40;;;;;;4993648;28;20038;-67
2023/08/24 12:26:31;;;;;;;7.97;1.63;;;29.20;82.70;;;;;;4997327;28;20083;-67
2023/08/24 12:29:02;;;;;;;4.38;1.85;;;29.50;84.70;;;;;;5001150;28;20026;-67
2023/08/24 12:31:28;;;;;;;4.15;1.85;;;29.50;83.60;;;;;;5001806;28;20025;-67
2023/08/24 12:34:00;;;;;;;4.63;2.13;;;29.60;86.10;;;;;;5004691;28;20040;-66
2023/08/24 12:36:26;;;;;;;4.15;1.80;;;29.80;83.00;;;;;;4994302;28;20022;-67
2023/08/24 12:38:51;;;;;;;4.13;1.73;;;29.60;82.50;;;;;;5001419;28;20022;-67
2023/08/24 12:41:17;;;;;;;6.38;2.47;;;29.60;84.10;;;;;;5002145;28;20573;-67
2023/08/24 12:43:42;;;;;;;3.75;2.20;;;29.30;83.30;;;;;;5000911;28;20105;-68
2023/08/24 12:46:09;;;;;;;5.93;2.08;;;29.10;82.30;;;;;;5005696;28;20080;-66